Time;durP1;ratioP1;P1;durP2;ratioP2;P2;SDS_P1;SDS_P2;PMS_P1;PMS_P2;Temp;Humidity;BMP_temperature;BMP_pressure;BME280_temperature;BME280_humidity;BME280_pressure;Samples;Min_cycle;Max_cycle;Signal;HPM_P1;HPM_P2
2021/12/02 00:01:14;;;;;;;4.90;3.25;;;;;;;10.57;51.45;100939.53;1651097;86;21041;-59
2021/12/02 00:03:41;;;;;;;9.85;3.35;;;;;;;10.63;50.66;100939.41;1645787;87;21039;-59
2021/12/02 00:06:11;;;;;;;6.08;3.70;;;;;;;10.68;49.91;100940.63;1655357;85;21015;-59
2021/12/02 00:08:38;;;;;;;5.75;3.85;;;;;;;10.71;49.43;100943.20;1656630;86;21525;-59
2021/12/02 00:11:04;;;;;;;5.62;4.28;;;;;;;10.75;48.67;100949.19;1653838;86;21494;-59
2021/12/02 00:13:39;;;;;;;5.53;4.05;;;;;;;10.76;48.14;100953.05;1627506;87;21059;-59
2021/12/02 00:21:03;;;;;;;5.83;4.80;;;;;;;10.77;47.41;100943.51;1605537;88;21115;-59
2021/12/02 00:23:55;;;;;;;5.85;4.53;;;;;;;10.76;47.26;100937.44;1637337;86;21196;-59
2021/12/02 00:26:22;;;;;;;4.75;4.15;;;;;;;10.74;47.34;100934.01;1641620;86;21041;-59
2021/12/02 00:28:53;;;;;;;5.67;4.42;;;;;;;10.73;47.80;100931.02;1633816;86;21791;-59
2021/12/02 00:31:21;;;;;;;;;;;;;;;10.72;48.13;100938.39;1640853;86;21068;-59
2021/12/02 00:33:54;;;;;;;6.60;4.60;;;;;;;10.71;48.48;100932.78;1626158;86;20106;-59
2021/12/02 00:36:24;;;;;;;7.70;4.47;;;;;;;10.73;48.49;100939.25;1638379;86;21026;-59
2021/12/02 00:38:51;;;;;;;7.45;4.60;;;;;;;10.75;48.58;100929.23;1636160;86;21072;-59
2021/12/02 00:41:24;;;;;;;5.12;3.92;;;;;;;10.80;48.77;100918.27;1632537;86;21545;-59
2021/12/02 00:43:53;;;;;;;6.03;4.53;;;;;;;10.84;49.22;100912.58;1625602;86;21066;-59
2021/12/02 00:46:22;;;;;;;9.43;4.42;;;;;;;10.89;49.39;100913.33;1628575;86;21045;-59
2021/12/02 00:48:49;;;;;;;6.37;4.10;;;;;;;10.92;49.82;100910.20;1631501;86;21517;-59
2021/12/02 00:51:16;;;;;;;6.78;4.47;;;;;;;10.94;50.33;100910.20;1629747;86;21106;-59
2021/12/02 00:53:46;;;;;;;4.50;4.00;;;;;;;10.95;50.64;100904.08;1628234;86;21005;-59
2021/12/02 00:56:16;;;;;;;5.72;4.72;;;;;;;10.98;50.96;100905.34;1691555;81;21268;-59
2021/12/02 00:58:48;;;;;;;6.28;4.37;;;;;;;11.01;51.40;100910.03;1699000;83;21046;-59
2021/12/02 01:01:16;;;;;;;6.10;4.40;;;;;;;11.05;51.74;100911.67;1750909;80;21611;-59
2021/12/02 01:03:43;;;;;;;6.35;4.47;;;;;;;11.13;52.01;100914.97;1747961;80;20976;-59
2021/12/02 01:06:10;;;;;;;7.55;4.78;;;;;;;11.15;52.39;100905.38;1763552;81;21491;-60
2021/12/02 01:08:37;;;;;;;4.97;4.30;;;;;;;11.20;52.62;100899.64;1767026;80;21833;-60
2021/12/02 01:11:05;;;;;;;5.58;4.33;;;;;;;11.21;53.11;100897.42;1770911;80;21037;-60
2021/12/02 01:13:32;;;;;;;4.35;3.77;;;;;;;11.23;53.22;100890.44;1756010;80;21525;-59
2021/12/02 01:15:59;;;;;;;6.97;3.40;;;;;;;11.25;53.58;100893.03;1758532;80;22187;-60
2021/12/02 01:18:26;;;;;;;3.80;3.42;;;;;;;11.27;53.65;100893.38;1773186;80;21533;-59
2021/12/02 01:20:53;;;;;;;4.70;2.98;;;;;;;11.31;53.80;100888.52;1754665;80;21554;-59
2021/12/02 01:23:21;;;;;;;6.30;3.60;;;;;;;11.37;54.11;100900.09;1753817;80;21016;-60
2021/12/02 01:25:55;;;;;;;5.35;3.55;;;;;;;11.44;54.33;100895.17;1764720;80;21001;-59
2021/12/02 01:28:24;;;;;;;6.03;2.45;;;;;;;11.52;54.43;100904.58;1758999;80;20978;-59
2021/12/02 01:30:52;;;;;;;2.50;2.17;;;;;;;11.58;54.38;100910.95;1761799;80;21077;-59
2021/12/02 01:33:23;;;;;;;4.67;2.87;;;;;;;11.64;53.79;100901.67;1755542;81;20994;-60
2021/12/02 01:35:51;;;;;;;3.75;2.70;;;;;;;11.68;53.10;100903.35;1770375;80;21093;-59
2021/12/02 01:38:18;;;;;;;5.28;3.20;;;;;;;11.68;52.40;100900.30;1755639;80;21065;-59
2021/12/02 01:40:44;;;;;;;5.58;2.90;;;;;;;11.68;51.70;100893.79;1755650;80;21026;-59
2021/12/02 01:43:15;;;;;;;4.30;2.70;;;;;;;11.68;51.07;100877.28;1756470;80;20999;-59
2021/12/02 01:45:42;;;;;;;3.35;2.60;;;;;;;11.65;50.59;100887.73;1748977;80;20991;-59
2021/12/02 01:48:16;;;;;;;3.67;2.50;;;;;;;11.61;50.23;100883.49;1764376;80;21049;-59
2021/12/02 01:50:41;;;;;;;5.28;2.65;;;;;;;11.55;49.99;100888.84;1760184;80;21072;-59
2021/12/02 01:53:07;;;;;;;4.08;2.70;;;;;;;11.48;49.80;100885.09;1766950;80;21123;-59
2021/12/02 01:55:35;;;;;;;3.55;2.45;;;;;;;11.41;49.77;100889.19;1754851;80;20967;-59
2021/12/02 01:58:05;;;;;;;4.42;2.40;;;;;;;11.32;49.86;100885.03;1763301;80;21538;-59
2021/12/02 02:00:43;;;;;;;2.75;2.35;;;;;;;11.25;50.01;100886.05;1680675;83;21171;-59
2021/12/02 02:03:12;;;;;;;4.37;2.47;;;;;;;11.18;50.22;100879.28;1681117;83;21053;-59
2021/12/02 02:05:39;;;;;;;3.62;2.37;;;;;;;11.13;50.40;100883.72;1684903;84;21101;-59
2021/12/02 02:08:18;;;;;;;2.72;2.47;;;;;;;11.10;50.48;100875.99;1696182;84;21077;-59
2021/12/02 02:10:45;;;;;;;5.40;2.47;;;;;;;11.08;50.60;100873.87;1630361;86;21090;-59
2021/12/02 02:13:13;;;;;;;3.25;2.30;;;;;;;11.05;50.67;100866.55;1595155;89;21124;-60
2021/12/02 02:15:43;;;;;;;3.77;2.62;;;;;;;11.02;50.84;100868.80;1575981;90;21058;-59
2021/12/02 02:18:22;;;;;;;4.03;2.08;;;;;;;10.97;50.96;100864.12;1626737;87;21058;-59
2021/12/02 02:21:05;;;;;;;6.30;2.52;;;;;;;10.95;51.18;100867.20;1620746;86;21088;-60
2021/12/02 02:23:38;;;;;;;4.08;2.40;;;;;;;10.91;51.52;100859.05;1608721;87;21053;-60
2021/12/02 02:26:04;;;;;;;4.22;2.45;;;;;;;10.92;51.78;100855.53;1629266;87;21091;-59
2021/12/02 02:28:31;;;;;;;6.72;3.00;;;;;;;10.92;52.14;100849.02;1589302;89;21150;-61
2021/12/02 02:30:58;;;;;;;5.45;2.30;;;;;;;10.96;52.42;100849.84;1553217;91;21147;-59
2021/12/02 02:33:25;;;;;;;4.92;2.75;;;;;;;10.96;52.68;100847.23;1630039;86;21075;-59
2021/12/02 02:35:51;;;;;;;4.75;2.08;;;;;;;10.99;53.06;100842.81;1588351;89;21639;-59
2021/12/02 02:38:18;;;;;;;7.25;2.10;;;;;;;11.03;53.35;100841.84;1560356;90;21081;-60
2021/12/02 02:40:46;;;;;;;7.08;2.30;;;;;;;11.08;53.59;100838.71;1592657;89;21042;-59
2021/12/02 02:43:20;;;;;;;6.85;2.52;;;;;;;11.12;53.78;100824.73;1566543;91;21113;-59
2021/12/02 02:45:42;;;;;;;7.58;1.85;;;;;;;11.20;54.10;100824.11;1580696;89;21129;-59
2021/12/02 02:48:08;;;;;;;3.77;1.80;;;;;;;11.28;54.18;100827.38;1562215;90;21076;-60
2021/12/02 02:50:35;;;;;;;6.62;2.62;;;;;;;11.38;54.31;100830.19;1521372;91;21030;-60
2021/12/02 02:53:17;;;;;;;5.58;2.10;;;;;;;11.46;54.49;100835.20;1583499;89;21086;-60
2021/12/02 02:55:50;;;;;;;3.92;2.02;;;;;;;11.56;54.40;100839.77;1598492;89;21521;-59
2021/12/02 02:58:26;;;;;;;10.05;2.47;;;;;;;11.66;54.34;100842.55;1624143;86;21513;-60
2021/12/02 03:00:55;;;;;;;4.90;1.62;;;;;;;11.75;54.48;100834.08;1702876;82;21078;-60
2021/12/02 03:06:05;;;;;;;3.75;2.45;;;;;;;11.94;54.90;100827.50;1696934;84;20987;-60
2021/12/02 03:08:19;;;;;;;5.05;2.40;;;;;;;12.01;55.08;100830.34;1690478;83;21594;-60
2021/12/02 03:13:22;;;;;;;5.53;2.15;;;;;;;12.15;54.89;100840.42;1637550;86;21586;-60
2021/12/02 03:18:35;;;;;;;6.80;2.40;;;;;;;12.29;54.49;100833.08;1612344;87;21074;-59
2021/12/02 03:21:02;;;;;;;10.88;2.70;;;;;;;12.37;54.51;100831.11;1635650;87;21088;-60
2021/12/02 03:23:28;;;;;;;5.25;2.20;;;;;;;12.44;54.45;100826.14;1690859;84;21049;-60
2021/12/02 03:25:55;;;;;;;7.55;2.08;;;;;;;12.50;54.07;100826.41;1692931;84;21054;-61
2021/12/02 03:28:21;;;;;;;6.17;2.58;;;;;;;12.54;53.94;100828.89;1680091;84;21041;-59
2021/12/02 03:30:48;;;;;;;6.12;2.02;;;;;;;12.59;53.95;100829.59;1682057;84;21030;-59
2021/12/02 03:33:14;;;;;;;7.25;2.70;;;;;;;12.64;54.16;100835.55;1684073;84;21018;-60
2021/12/02 03:35:41;;;;;;;5.35;2.00;;;;;;;12.67;54.34;100830.27;1686416;84;21018;-59
2021/12/02 03:38:07;;;;;;;7.58;2.40;;;;;;;12.73;54.31;100836.61;1689608;84;21090;-60
2021/12/02 03:40:34;;;;;;;7.62;2.95;;;;;;;12.75;54.35;100841.34;1687512;84;21061;-59
2021/12/02 03:43:01;;;;;;;5.97;2.40;;;;;;;12.79;54.40;100842.95;1690598;84;21042;-59
2021/12/02 03:45:30;;;;;;;9.18;2.50;;;;;;;12.83;54.35;100836.74;1682731;85;20998;-59
2021/12/02 03:47:56;;;;;;;6.20;2.62;;;;;;;12.86;54.48;100848.83;1680549;85;21043;-59
2021/12/02 03:50:23;;;;;;;9.50;3.05;;;;;;;12.90;54.41;100856.53;1670792;85;21064;-60
2021/12/02 03:52:51;;;;;;;8.63;2.98;;;;;;;12.94;54.52;100852.92;1682023;84;21077;-59
2021/12/02 03:55:17;;;;;;;5.28;2.30;;;;;;;12.99;54.71;100855.41;1687230;84;21026;-60
2021/12/02 03:57:44;;;;;;;7.47;2.27;;;;;;;12.99;54.58;100849.74;1683560;85;20993;-60
2021/12/02 04:00:12;;;;;;;6.03;2.22;;;;;;;13.00;54.47;100853.22;1683758;85;21038;-60
2021/12/02 04:02:38;;;;;;;4.33;2.00;;;;;;;13.00;54.50;100849.30;1685013;84;21069;-60
2021/12/02 04:05:05;;;;;;;8.00;2.58;;;;;;;13.03;54.37;100844.83;1690361;84;21083;-60
2021/12/02 04:07:32;;;;;;;8.45;3.05;;;;;;;13.05;54.19;100843.06;1684978;84;21597;-60
2021/12/02 04:10:00;;;;;;;10.90;3.17;;;;;;;13.08;54.38;100850.78;1727004;80;21023;-60
2021/12/02 04:12:45;;;;;;;8.85;2.58;;;;;;;13.10;54.89;100836.83;1757782;80;21034;-60
2021/12/02 04:15:06;;;;;;;9.93;2.75;;;;;;;13.12;55.22;100846.79;1762213;80;21007;-60
2021/12/02 04:17:42;;;;;;;8.58;2.90;;;;;;;13.12;55.20;100840.26;1761475;80;21058;-59
2021/12/02 04:20:15;;;;;;;6.37;2.85;;;;;;;13.12;55.31;100842.87;1745691;81;21423;-59
2021/12/02 04:22:42;;;;;;;8.53;3.00;;;;;;;13.14;55.29;100838.45;1754001;80;21068;-59
2021/12/02 04:25:10;;;;;;;7.47;2.90;;;;;;;13.15;54.73;100833.64;1752938;80;21041;-60
2021/12/02 04:27:37;;;;;;;7.08;2.90;;;;;;;13.15;54.45;100844.09;1756458;80;21546;-60
2021/12/02 04:30:05;;;;;;;8.40;2.98;;;;;;;13.16;54.19;100831.42;1756530;80;21474;-60
2021/12/02 04:32:33;;;;;;;9.00;3.02;;;;;;;13.17;54.03;100838.38;1757212;80;21084;-59
2021/12/02 04:34:59;;;;;;;6.60;2.70;;;;;;;13.16;53.87;100827.50;1768614;80;21046;-60
2021/12/02 04:37:26;;;;;;;6.85;2.75;;;;;;;13.15;53.37;100820.58;1761437;80;21333;-59
2021/12/02 04:39:52;;;;;;;5.83;2.33;;;;;;;13.13;52.72;100814.55;1756860;80;21086;-60
2021/12/02 04:42:18;;;;;;;5.50;2.50;;;;;;;13.12;52.37;100821.97;1750244;80;22563;-60
2021/12/02 04:44:46;;;;;;;8.18;2.10;;;;;;;13.11;52.14;100820.27;1751003;80;21319;-59
2021/12/02 04:47:13;;;;;;;4.53;1.85;;;;;;;13.10;51.84;100826.38;1754692;80;21057;-61
2021/12/02 04:49:41;;;;;;;2.50;1.90;;;;;;;13.06;51.61;100816.02;1757271;80;21480;-59
2021/12/02 04:52:08;;;;;;;4.15;2.37;;;;;;;13.01;51.38;100817.90;1772301;80;21034;-60
2021/12/02 04:54:35;;;;;;;3.62;2.00;;;;;;;12.94;51.21;100811.14;1758417;80;22475;-59
2021/12/02 04:57:01;;;;;;;1.75;1.60;;;;;;;12.89;51.12;100813.05;1745337;80;21019;-60
2021/12/02 04:59:27;;;;;;;2.95;2.15;;;;;;;12.81;51.10;100811.13;1748449;80;21081;-60
2021/12/02 05:01:54;;;;;;;3.75;2.08;;;;;;;12.76;51.00;100815.61;1761963;80;20963;-60
2021/12/02 05:04:20;;;;;;;4.25;2.17;;;;;;;12.70;50.82;100817.55;1748862;80;21055;-59
2021/12/02 05:06:47;;;;;;;4.72;1.90;;;;;;;12.63;50.62;100816.86;1757119;80;21053;-59
2021/12/02 05:09:14;;;;;;;2.92;1.90;;;;;;;12.56;50.34;100811.43;1771388;80;21499;-59
2021/12/02 05:11:41;;;;;;;5.05;2.15;;;;;;;12.48;50.32;100812.11;1772398;80;21530;-60
2021/12/02 05:14:08;;;;;;;4.12;2.12;;;;;;;12.43;50.34;100827.47;1757552;80;21007;-59
2021/12/02 05:16:36;;;;;;;3.00;2.15;;;;;;;12.37;50.43;100825.89;1754978;80;21018;-60
2021/12/02 05:19:03;;;;;;;3.95;2.22;;;;;;;12.33;50.47;100833.84;1755629;80;21085;-59
2021/12/02 05:21:30;;;;;;;4.28;2.00;;;;;;;12.28;50.72;100832.69;1755522;81;21055;-59
2021/12/02 05:23:56;;;;;;;5.15;2.50;;;;;;;12.28;50.83;100838.34;1752839;81;21049;-59
2021/12/02 05:26:24;;;;;;;4.15;2.65;;;;;;;12.28;50.80;100841.82;1757597;80;21031;-59
2021/12/02 05:28:53;;;;;;;5.55;2.90;;;;;;;12.26;50.75;100841.01;1762265;80;21365;-60
2021/12/02 05:31:20;;;;;;;4.90;2.50;;;;;;;12.24;50.78;100846.72;1751593;80;20999;-60
2021/12/02 05:33:47;;;;;;;3.45;2.60;;;;;;;12.21;50.84;100842.87;1753482;80;21070;-59
2021/12/02 05:36:14;;;;;;;5.30;2.72;;;;;;;12.19;50.92;100857.70;1765192;80;21066;-59
2021/12/02 05:38:41;;;;;;;7.15;2.65;;;;;;;12.19;50.90;100857.70;1751518;80;21104;-59
2021/12/02 05:41:08;;;;;;;2.92;2.17;;;;;;;12.17;50.81;100864.28;1761549;80;21034;-60
2021/12/02 05:43:34;;;;;;;4.80;2.50;;;;;;;12.19;50.59;100859.02;1749122;80;20999;-59
2021/12/02 05:46:01;;;;;;;3.67;2.65;;;;;;;12.21;50.41;100853.30;1746569;80;21073;-59
2021/12/02 05:48:27;;;;;;;5.12;2.45;;;;;;;12.21;50.22;100846.34;1759092;81;21527;-59
2021/12/02 05:50:54;;;;;;;4.42;2.47;;;;;;;12.22;50.04;100849.78;1761546;80;21536;-59
2021/12/02 05:53:20;;;;;;;5.83;2.47;;;;;;;12.20;49.91;100856.80;1742360;81;21554;-59
2021/12/02 05:55:46;;;;;;;8.85;3.00;;;;;;;12.19;49.85;100859.02;1759684;80;21485;-59
2021/12/02 05:58:14;;;;;;;14.63;4.10;;;;;;;12.18;49.98;100858.59;1755177;80;21035;-60
2021/12/02 06:00:41;;;;;;;8.93;3.83;;;;;;;12.18;50.12;100855.98;1758667;80;21011;-59
2021/12/02 06:03:07;;;;;;;6.12;3.02;;;;;;;12.20;50.18;100867.23;1747404;80;21037;-59
2021/12/02 06:05:34;;;;;;;6.00;2.58;;;;;;;12.27;49.96;100853.14;1765955;80;21063;-59
2021/12/02 06:08:03;;;;;;;11.25;2.62;;;;;;;12.33;49.66;100860.80;1752312;80;21502;-59
2021/12/02 06:10:30;;;;;;;9.03;2.60;;;;;;;12.40;49.38;100864.97;1758502;81;21035;-60
2021/12/02 06:12:57;;;;;;;6.12;2.65;;;;;;;12.44;49.09;100861.38;1757113;80;21061;-59
2021/12/02 06:15:23;;;;;;;2.98;2.05;;;;;;;12.47;48.97;100852.61;1758008;80;21046;-60
2021/12/02 06:17:50;;;;;;;4.37;2.27;;;;;;;12.49;48.94;100859.47;1752222;80;21583;-61
2021/12/02 06:20:20;;;;;;;5.55;2.70;;;;;;;12.51;48.88;100869.89;1749462;80;21541;-59
2021/12/02 06:22:47;;;;;;;5.67;2.65;;;;;;;12.49;48.94;100864.69;1752429;80;21300;-60
2021/12/02 06:27:48;;;;;;;8.05;3.02;;;;;;;12.49;48.96;100872.52;1750129;80;21050;-60
2021/12/02 06:30:17;;;;;;;13.65;3.27;;;;;;;12.52;49.01;100871.59;1712120;82;21034;-59
2021/12/02 06:32:44;;;;;;;8.65;2.65;;;;;;;12.53;49.23;100876.76;1708705;82;21038;-59
2021/12/02 06:35:10;;;;;;;8.73;2.90;;;;;;;12.57;49.53;100867.94;1708731;82;21654;-60
2021/12/02 06:37:37;;;;;;;12.95;3.65;;;;;;;12.61;49.58;100871.34;1709081;82;21604;-59
2021/12/02 06:40:05;;;;;;;8.78;3.02;;;;;;;12.63;49.85;100865.16;1720886;82;21101;-59
2021/12/02 06:42:33;;;;;;;8.25;3.00;;;;;;;12.68;50.40;100865.89;1726121;82;21038;-59
2021/12/02 06:45:00;;;;;;;8.58;3.00;;;;;;;12.74;50.86;100864.41;1722195;82;21078;-60
2021/12/02 06:47:32;;;;;;;11.88;3.33;;;;;;;12.79;50.99;100869.51;1720527;82;21031;-60
2021/12/02 06:50:01;;;;;;;7.72;3.08;;;;;;;12.84;51.30;100856.72;1719185;82;20990;-60
2021/12/02 06:52:27;;;;;;;7.20;2.55;;;;;;;12.91;51.45;100867.41;1708557;82;21038;-59
2021/12/02 06:54:54;;;;;;;6.00;2.72;;;;;;;12.96;51.18;100865.97;1708999;82;21038;-60
2021/12/02 06:57:21;;;;;;;13.18;4.42;;;;;;;13.02;51.03;100869.22;1715449;82;21615;-59
2021/12/02 06:59:48;;;;;;;13.53;3.50;;;;;;;13.05;51.28;100864.40;1715154;82;21047;-60
2021/12/02 07:02:14;;;;;;;8.28;3.02;;;;;;;13.08;51.21;100866.45;1709556;82;21538;-60
2021/12/02 07:04:40;;;;;;;8.00;2.90;;;;;;;13.08;51.79;100869.98;1701196;83;21034;-60
2021/12/02 07:07:07;;;;;;;5.08;2.50;;;;;;;13.08;51.56;100867.77;1717581;82;21073;-59
2021/12/02 07:09:34;;;;;;;9.18;2.87;;;;;;;13.12;51.46;100866.38;1712916;82;21048;-60
2021/12/02 07:12:00;;;;;;;7.00;2.65;;;;;;;13.13;51.08;100871.55;1713863;83;21050;-60
2021/12/02 07:14:27;;;;;;;6.55;2.90;;;;;;;13.17;51.04;100870.55;1700207;82;21003;-60
2021/12/02 07:16:57;;;;;;;10.48;3.12;;;;;;;13.21;51.23;100863.50;1709686;82;21018;-60
2021/12/02 07:19:25;;;;;;;8.60;2.67;;;;;;;13.25;51.12;100859.89;1708508;82;21494;-60
2021/12/02 07:21:52;;;;;;;8.60;2.45;;;;;;;13.27;50.90;100856.78;1717073;82;21482;-60
2021/12/02 07:24:19;;;;;;;5.37;2.30;;;;;;;13.29;50.44;100859.72;1706064;82;21112;-60
2021/12/02 07:26:46;;;;;;;4.87;2.40;;;;;;;13.31;50.45;100861.00;1708239;80;21519;-60
2021/12/02 07:31:44;;;;;;;6.55;2.90;;;;;;;13.35;49.87;100862.62;1662448;84;21538;-59
2021/12/02 07:34:11;;;;;;;14.83;2.90;;;;;;;13.39;50.46;100862.92;1674967;84;21061;-61
2021/12/02 07:36:37;;;;;;;7.60;2.80;;;;;;;13.42;50.77;100858.45;1666549;85;21055;-60
2021/12/02 07:39:07;;;;;;;10.05;3.55;;;;;;;13.45;50.60;100849.66;1681505;84;21112;-60
2021/12/02 07:41:35;;;;;;;7.97;3.35;;;;;;;13.48;50.61;100840.39;1675177;84;21055;-61
2021/12/02 07:44:01;;;;;;;9.30;2.47;;;;;;;13.50;50.39;100843.37;1653290;84;21561;-60
2021/12/02 07:46:30;;;;;;;4.20;2.25;;;;;;;13.52;50.41;100836.78;1665464;84;21115;-61
2021/12/02 07:48:57;;;;;;;11.73;3.02;;;;;;;13.53;50.90;100837.20;1648266;84;21048;-60
2021/12/02 07:51:26;;;;;;;10.45;3.47;;;;;;;13.56;50.98;100842.34;1675139;84;21536;-60
2021/12/02 07:53:53;;;;;;;6.55;2.70;;;;;;;13.59;50.76;100842.22;1656249;85;21545;-60
2021/12/02 07:56:22;;;;;;;6.60;2.50;;;;;;;13.64;50.64;100842.94;1667416;84;21046;-60
2021/12/02 07:58:49;;;;;;;9.05;2.83;;;;;;;13.69;50.51;100834.48;1677010;84;21020;-60
2021/12/02 08:01:17;;;;;;;8.15;2.75;;;;;;;13.72;50.42;100838.31;1689764;84;21088;-60
2021/12/02 08:03:44;;;;;;;5.45;2.62;;;;;;;13.75;50.61;100838.19;1678032;84;21017;-60
2021/12/02 08:06:12;;;;;;;6.97;2.87;;;;;;;13.78;50.86;100835.48;1671028;85;21030;-60
2021/12/02 08:08:39;;;;;;;7.87;2.42;;;;;;;13.83;51.17;100846.63;1666709;84;21144;-60
2021/12/02 08:11:07;;;;;;;7.65;2.27;;;;;;;13.87;51.25;100846.48;1662899;84;21069;-60
2021/12/02 08:13:34;;;;;;;4.72;2.60;;;;;;;13.94;50.51;100835.37;1654014;85;21051;-60
2021/12/02 08:16:02;;;;;;;8.03;2.45;;;;;;;14.00;49.13;100839.08;1664658;85;21098;-60
2021/12/02 08:18:29;;;;;;;8.95;2.42;;;;;;;14.07;48.00;100839.28;1647190;85;21531;-60
2021/12/02 08:20:55;;;;;;;7.10;2.50;;;;;;;14.13;47.93;100836.45;1679064;84;21605;-60
2021/12/02 08:23:22;;;;;;;6.42;2.87;;;;;;;14.19;47.97;100843.22;1670379;84;21020;-60
2021/12/02 08:25:48;;;;;;;4.60;2.33;;;;;;;14.24;47.86;100843.45;1651918;85;21031;-60
2021/12/02 08:28:15;;;;;;;8.00;2.80;;;;;;;14.27;47.46;100844.67;1704379;80;21596;-60
2021/12/02 08:30:42;;;;;;;8.75;3.27;;;;;;;14.29;46.71;100841.58;1747746;80;21039;-61
2021/12/02 08:33:08;;;;;;;7.03;2.70;;;;;;;14.33;45.71;100840.55;1754424;80;20988;-60
2021/12/02 08:35:35;;;;;;;6.33;2.55;;;;;;;14.36;44.70;100835.67;1758721;80;21006;-60
2021/12/02 08:38:11;;;;;;;7.90;3.60;;;;;;;14.38;43.76;100836.02;1759090;80;21565;-60
2021/12/02 08:40:39;;;;;;;7.42;2.75;;;;;;;14.41;43.56;100838.52;1770421;80;21085;-60
2021/12/02 08:43:11;;;;;;;7.15;2.75;;;;;;;14.45;43.34;100837.49;1753763;80;21533;-60
2021/12/02 08:45:40;;;;;;;14.73;3.17;;;;;;;14.46;44.10;100840.53;1736162;80;21560;-60
2021/12/02 08:48:07;;;;;;;6.33;2.50;;;;;;;14.48;44.31;100833.47;1757514;80;21006;-61
2021/12/02 08:50:34;;;;;;;5.28;3.25;;;;;;;14.50;43.29;100822.48;1745638;81;21010;-59
2021/12/02 08:53:01;;;;;;;3.80;2.33;;;;;;;14.51;42.40;100829.41;1754246;80;21070;-60
2021/12/02 08:55:31;;;;;;;3.37;1.98;;;;;;;14.53;42.09;100819.73;1757436;80;21022;-61
2021/12/02 08:58:00;;;;;;;5.90;2.70;;;;;;;14.57;42.26;100812.16;1741632;81;21819;-60
2021/12/02 09:00:33;;;;;;;3.50;2.40;;;;;;;14.62;42.12;100810.69;1750957;80;21080;-60
2021/12/02 09:02:58;;;;;;;4.47;2.20;;;;;;;14.63;41.34;100818.48;1745824;80;21068;-61
2021/12/02 09:05:24;;;;;;;7.03;2.52;;;;;;;14.67;40.88;100820.08;1762438;80;21050;-60
2021/12/02 09:07:52;;;;;;;3.83;2.12;;;;;;;14.71;40.75;100817.36;1754928;80;21066;-60
2021/12/02 09:10:21;;;;;;;4.85;2.25;;;;;;;14.73;40.75;100811.61;1738212;80;21042;-61
2021/12/02 09:12:49;;;;;;;2.85;1.98;;;;;;;14.76;40.32;100804.92;1752163;80;21059;-60
2021/12/02 09:15:15;;;;;;;3.77;1.82;;;;;;;14.77;40.13;100818.44;1767484;80;20975;-60
2021/12/02 09:17:42;;;;;;;4.53;1.77;;;;;;;14.79;40.17;100807.44;1742160;80;21050;-60
2021/12/02 09:20:11;;;;;;;4.75;2.17;;;;;;;14.81;40.21;100803.00;1749497;80;21015;-60
2021/12/02 09:22:39;;;;;;;7.22;2.55;;;;;;;14.81;40.22;100807.78;1757241;80;20991;-60
2021/12/02 09:25:07;;;;;;;9.75;2.40;;;;;;;14.82;40.25;100796.37;1764324;80;21076;-60
2021/12/02 09:27:34;;;;;;;4.70;2.65;;;;;;;14.83;40.30;100798.55;1767447;80;21034;-60
2021/12/02 09:30:03;;;;;;;5.47;2.30;;;;;;;14.84;40.48;100796.34;1736896;80;21020;-60
2021/12/02 09:32:29;;;;;;;3.92;2.15;;;;;;;14.84;40.56;100800.27;1750401;81;21066;-60
2021/12/02 09:34:57;;;;;;;5.25;2.02;;;;;;;14.84;40.41;100805.52;1746936;80;21125;-60
2021/12/02 09:37:24;;;;;;;4.45;2.30;;;;;;;14.84;40.29;100795.03;1747400;80;21839;-61
2021/12/02 09:39:50;;;;;;;4.15;1.98;;;;;;;14.84;40.17;100792.41;1739717;80;21530;-58
2021/12/02 09:42:17;;;;;;;2.98;1.65;;;;;;;14.86;40.04;100790.59;1739619;80;21005;-58
2021/12/02 09:44:46;;;;;;;7.42;2.55;;;;;;;14.89;40.24;100787.84;1746793;80;20999;-58
2021/12/02 09:47:15;;;;;;;5.72;2.65;;;;;;;14.91;40.11;100772.91;1753776;80;21653;-58
2021/12/02 09:49:43;;;;;;;8.30;2.50;;;;;;;14.94;40.11;100776.73;1756658;80;21101;-59
2021/12/02 09:52:13;;;;;;;5.33;2.33;;;;;;;14.97;40.06;100772.66;1743945;80;20975;-59
2021/12/02 09:57:22;;;;;;;7.35;2.85;;;;;;;15.03;40.11;100767.18;1669543;84;21021;-60
2021/12/02 09:59:49;;;;;;;7.62;2.72;;;;;;;15.07;39.89;100760.90;1675756;85;21048;-60
2021/12/02 10:02:17;;;;;;;7.03;2.25;;;;;;;15.11;39.64;100759.86;1674729;85;21725;-59
2021/12/02 10:12:34;;;;;;;12.98;2.50;;;;;;;15.25;39.33;100752.32;1678709;84;21074;-61
2021/12/02 10:15:02;;;;;;;10.20;3.50;;;;;;;15.28;39.68;100748.25;1673334;85;21095;-60
2021/12/02 10:17:36;;;;;;;13.40;4.62;;;;;;;15.34;40.31;100755.86;1683324;84;21523;-60
2021/12/02 10:23:22;;;;;;;9.88;3.12;;;;;;;15.43;43.00;100755.05;1648622;85;21041;-61
2021/12/02 10:25:58;;;;;;;7.30;3.25;;;;;;;15.47;43.55;100742.67;1654390;85;21531;-61
2021/12/02 10:28:27;;;;;;;10.15;3.65;;;;;;;15.52;44.24;100742.49;1570842;90;21067;-60
2021/12/02 10:30:58;;;;;;;7.85;2.70;;;;;;;15.53;44.19;100742.42;1567673;90;21134;-61
2021/12/02 10:33:45;;;;;;;8.95;2.92;;;;;;;15.53;44.72;100733.23;1581238;89;21580;-60
2021/12/02 10:36:39;;;;;;;7.20;2.70;;;;;;;15.52;45.40;100731.52;1561564;90;21196;-60
2021/12/02 10:39:20;;;;;;;9.40;3.27;;;;;;;15.50;45.39;100743.02;1517155;93;21074;-62
2021/12/02 10:41:49;;;;;;;9.95;3.27;;;;;;;15.51;45.29;100737.70;1482244;95;21777;-61
2021/12/02 10:44:28;;;;;;;10.20;2.70;;;;;;;15.49;45.60;100730.36;1489825;96;21594;-61
2021/12/02 10:47:09;;;;;;;6.10;2.55;;;;;;;15.50;45.70;100734.67;1485919;96;21150;-62
2021/12/02 10:49:43;;;;;;;6.05;3.02;;;;;;;15.52;45.72;100745.94;1481811;96;21201;-63
2021/12/02 10:52:22;;;;;;;8.40;3.12;;;;;;;15.56;45.61;100736.20;1494118;95;21081;-60
2021/12/02 10:55:01;;;;;;;8.90;3.00;;;;;;;15.59;45.47;100736.05;1490635;96;21098;-61
2021/12/02 10:57:30;;;;;;;9.25;2.45;;;;;;;15.62;45.78;100728.06;1381979;102;21164;-60
2021/12/02 11:00:00;;;;;;;6.33;2.92;;;;;;;15.65;46.39;100732.72;1390618;102;21164;-62
2021/12/02 11:02:39;;;;;;;7.45;2.90;;;;;;;15.65;46.84;100731.86;1398022;102;21155;-61
2021/12/02 11:05:09;;;;;;;8.78;2.50;;;;;;;15.63;47.07;100737.17;1390219;102;21618;-62
2021/12/02 11:07:39;;;;;;;10.38;2.80;;;;;;;15.62;47.16;100731.52;1349774;104;21655;-60
2021/12/02 11:10:14;;;;;;;9.15;2.92;;;;;;;15.62;47.27;100727.58;1353836;104;21133;-61
2021/12/02 11:12:46;;;;;;;10.55;2.62;;;;;;;15.63;47.38;100729.30;1337185;105;21171;-59
2021/12/02 11:15:24;;;;;;;14.10;2.83;;;;;;;15.63;47.32;100724.06;1333884;106;21736;-60
2021/12/02 11:17:59;;;;;;;7.62;2.75;;;;;;;15.63;47.55;100726.69;1339428;105;21106;-66
2021/12/02 11:20:40;;;;;;;8.20;2.75;;;;;;;15.61;47.86;100719.34;1338337;106;21192;-60
2021/12/02 11:23:15;;;;;;;7.85;2.80;;;;;;;15.62;48.17;100709.22;1336915;105;21277;-62
2021/12/02 11:26:06;;;;;;;11.28;3.37;;;;;;;15.65;48.08;100707.80;1350030;103;21213;-62
2021/12/02 11:28:36;;;;;;;12.35;3.35;;;;;;;15.67;47.91;100703.33;1325689;105;21172;-60
2021/12/02 11:31:19;;;;;;;9.25;2.70;;;;;;;15.61;47.99;100706.22;1373314;103;21628;-61
2021/12/02 11:33:47;;;;;;;8.83;3.45;;;;;;;15.58;47.87;100703.72;1341561;105;21468;-60
2021/12/02 11:36:25;;;;;;;8.00;2.95;;;;;;;15.61;47.52;100707.53;1358878;103;21207;-60
2021/12/02 11:38:53;;;;;;;12.05;3.65;;;;;;;15.63;47.33;100704.39;1369954;102;21151;-61
2021/12/02 11:41:20;;;;;;;8.08;3.37;;;;;;;15.62;46.89;100710.53;1437678;97;21250;-60
2021/12/02 11:43:46;;;;;;;14.73;3.35;;;;;;;15.60;45.53;100709.75;1422403;99;21148;-62
2021/12/02 11:46:13;;;;;;;4.58;2.20;;;;;;;15.61;44.45;100714.55;1418387;99;21160;-61
2021/12/02 11:48:42;;;;;;;6.85;2.30;;;;;;;15.57;44.10;100704.66;1414413;99;21116;-61
2021/12/02 11:51:13;;;;;;;4.58;2.37;;;;;;;15.58;43.75;100710.77;1425543;98;21161;-59
2021/12/02 11:53:39;;;;;;;4.87;2.30;;;;;;;15.57;43.69;100715.14;1416968;98;21153;-63
2021/12/02 11:56:13;;;;;;;4.55;1.92;;;;;;;15.56;43.76;100722.60;1448524;97;21555;-65
2021/12/02 11:58:40;;;;;;;11.33;2.10;;;;;;;15.55;43.68;100715.67;1397206;100;21092;-61
2021/12/02 12:01:09;;;;;;;5.87;2.55;;;;;;;15.54;43.57;100720.50;1412689;99;21239;-62
2021/12/02 12:03:41;;;;;;;6.35;2.42;;;;;;;15.54;43.53;100719.20;1429654;98;21211;-61